Red Daisy — 3FSK6 — position and weather

sailwx.info

Track history (hours):
 
Tides and Currents Weather Stations Pressure Air Temp Water Temp Dewpoint Dewpoint Depression Visibility Wind Speed Wind Dir Waves Ship Positions

Red Daisy

Last reported at 2018-May-26 13:46 UTC. Time now 2018-Jun-22 01:54 UTC.
Position N 36°50' E 000°33'.
Warning: this ship's position is 26 days out of date.

Length 199 m; draft 13.4 m.

Type: Cargo ship. MMSI: 374805000.

Date/timePositionNaut miles runAvg speedWind from/ knotsBaromVisibWave heightAir tempDewpointWater temp
2018-May-26 13:46N 36°50' E 000°33'413.4
2018-May-26 13:30N 36°49' E 000°29'713.4
2018-May-26 13:00N 36°47' E 000°21'713.1
2018-May-26 12:30N 36°45' E 000°13'2812.9
2018-May-26 10:18N 36°37' W 000°21'23713.1
2018-May-25 16:13N 36°02' W 005°11'212.4
2018-May-25 16:01N 36°02' W 005°14'611.0
2018-May-25 15:31N 36°05' W 005°20'4 7.1
2018-May-25 15:00N 36°08' W 005°23'0 0.3
2018-May-25 14:27N 36°08' W 005°23'0 0.2
2018-May-25 13:51N 36°08' W 005°23'0 0.2
2018-May-25 13:30N 36°08' W 005°23'0 0.0
2018-May-25 12:57N 36°08' W 005°23'0 0.0
2018-May-25 06:43N 36°08' W 005°23'1 2.4
2018-May-25 06:24N 36°07' W 005°22'2 4.9
2018-May-25 05:56N 36°05' W 005°21'1 2.8
2018-May-25 05:29N 36°04' W 005°21'1 2.6
2018-May-25 05:01N 36°03' W 005°22'1 1.1
2018-May-25 04:30N 36°03' W 005°21'1 2.3
2018-May-25 04:00N 36°04' W 005°20'1 1.4
2018-May-25 03:31N 36°03' W 005°20'2 3.1
2018-May-25 03:01N 36°03' W 005°22'1 2.9
2018-May-25 02:30N 36°01' W 005°22'3 5.4
2018-May-25 02:00N 35°58' W 005°23'4 8.2
2018-May-25 01:30N 35°57' W 005°28'  
2018-May-21 16:18N 38°04' W 023°58'310.5
2018-May-21 16:00N 38°04' W 024°02'510.4
2018-May-21 15:30N 38°05' W 024°09'510.3
2018-May-21 15:01N 38°05' W 024°15'510.1
2018-May-21 14:30N 38°05' W 024°22'510.1
2018-May-21 14:00N 38°05' W 024°28'510.2
2018-May-21 13:30N 38°06' W 024°34'510.3
2018-May-21 13:00N 38°06' W 024°41'510.1
2018-May-21 12:30N 38°06' W 024°47'510.1
2018-May-21 12:00N 38°06' W 024°54'510.0
2018-May-21 11:30N 38°07' W 025°00'510.1
2018-May-21 11:00N 38°07' W 025°06'510.2
2018-May-21 10:30N 38°07' W 025°13'510.3
2018-May-21 10:00N 38°07' W 025°20'510.0
2018-May-21 09:30N 38°08' W 025°26'5 9.8
2018-May-21 09:00N 38°08' W 025°32'510.0
2018-May-21 08:30N 38°08' W 025°38'510.0
2018-May-21 08:01N 38°08' W 025°45'5 9.8
2018-May-21 07:30N 38°09' W 025°51'510.1
2018-May-21 07:00N 38°09' W 025°57'510.3
2018-May-21 06:31N 38°09' W 026°04'510.4
2018-May-21 06:00N 38°09' W 026°11'510.5
2018-May-21 05:30N 38°09' W 026°17'510.9
2018-May-21 05:00N 38°10' W 026°24'510.8
2018-May-21 04:31N 38°10' W 026°31'510.5
2018-May-21 04:00N 38°10' W 026°38'510.5
2018-May-21 03:30N 38°10' W 026°44'510.7
2018-May-21 03:00N 38°11' W 026°51'510.7
2018-May-21 02:30N 38°11' W 026°58'510.6
2018-May-21 02:00N 38°11' W 027°05'510.7
2018-May-21 01:30N 38°12' W 027°12'510.2
2018-May-21 01:01N 38°12' W 027°18'510.3
2018-May-21 00:30N 38°12' W 027°25'510.3
2018-May-21 00:00N 38°12' W 027°31'510.1
2018-May-20 23:31N 38°12' W 027°38'510.3
2018-May-20 23:00N 38°13' W 027°44'510.2
2018-May-20 22:30N 38°13' W 027°51'510.7
2018-May-20 22:00N 38°13' W 027°57'510.9
2018-May-20 21:30N 38°13' W 028°04'611.1
2018-May-20 21:00N 38°14' W 028°11'511.0
2018-May-20 20:30N 38°14' W 028°18'510.3
2018-May-20 20:00N 38°14' W 028°25'511.0
2018-May-20 19:30N 38°14' W 028°32'510.9
2018-May-20 19:00N 38°15' W 028°39'510.9
2018-May-20 18:31N 38°15' W 028°46'510.8
2018-May-20 18:00N 38°15' W 028°53'510.4
2018-May-20 17:30N 38°15' W 028°59'510.3
2018-May-20 17:01N 38°16' W 029°06'510.4
2018-May-20 16:30N 38°16' W 029°12'510.4
2018-May-20 16:00N 38°16' W 029°19'510.5
2018-May-20 15:30N 38°17' W 029°26'510.8
2018-May-20 15:00N 38°17' W 029°32'611.2
2018-May-20 14:30N 38°17' W 029°40'510.7
2018-May-20 14:00N 38°17' W 029°46'510.7
2018-May-20 13:31N 38°17' W 029°53'510.4
2018-May-20 13:00N 38°18' W 029°60'510.7
2018-May-20 12:30N 38°17' W 030°07'510.4
2018-May-20 12:00N 38°17' W 030°13'511.0
2018-May-20 11:30N 38°16' W 030°20'510.7
2018-May-20 11:00N 38°15' W 030°27'510.3
2018-May-20 10:30N 38°15' W 030°33'7011.3
2018-May-20 04:22N 38°12' W 032°02'  
Track history (hours):
 
Tides and Currents Weather Stations Pressure Air Temp Water Temp Dewpoint Dewpoint Depression Visibility Wind Speed Wind Dir Waves Ship Positions

Red Daisy

Last reported at 2018-May-26 13:46 UTC. Time now 2018-Jun-22 01:54 UTC.
Position N 36°50' E 000°33'.
Warning: this ship's position is 26 days out of date.

Length 199 m; draft 13.4 m.

Type: Cargo ship. MMSI: 374805000.

Date/timePositionNaut miles runAvg speedWind from/ knotsBaromVisibWave heightAir tempDewpointWater temp
2018-May-26 13:46N 36°50' E 000°33'413.4
2018-May-26 13:30N 36°49' E 000°29'713.4
2018-May-26 13:00N 36°47' E 000°21'713.1
2018-May-26 12:30N 36°45' E 000°13'2812.9
2018-May-26 10:18N 36°37' W 000°21'23713.1
2018-May-25 16:13N 36°02' W 005°11'212.4
2018-May-25 16:01N 36°02' W 005°14'611.0
2018-May-25 15:31N 36°05' W 005°20'4 7.1
2018-May-25 15:00N 36°08' W 005°23'0 0.3
2018-May-25 14:27N 36°08' W 005°23'0 0.2
2018-May-25 13:51N 36°08' W 005°23'0 0.2
2018-May-25 13:30N 36°08' W 005°23'0 0.0
2018-May-25 12:57N 36°08' W 005°23'0 0.0
2018-May-25 06:43N 36°08' W 005°23'1 2.4
2018-May-25 06:24N 36°07' W 005°22'2 4.9
2018-May-25 05:56N 36°05' W 005°21'1 2.8
2018-May-25 05:29N 36°04' W 005°21'1 2.6
2018-May-25 05:01N 36°03' W 005°22'1 1.1
2018-May-25 04:30N 36°03' W 005°21'1 2.3
2018-May-25 04:00N 36°04' W 005°20'1 1.4
2018-May-25 03:31N 36°03' W 005°20'2 3.1
2018-May-25 03:01N 36°03' W 005°22'1 2.9
2018-May-25 02:30N 36°01' W 005°22'3 5.4
2018-May-25 02:00N 35°58' W 005°23'4 8.2
2018-May-25 01:30N 35°57' W 005°28'  
2018-May-21 16:18N 38°04' W 023°58'310.5
2018-May-21 16:00N 38°04' W 024°02'510.4
2018-May-21 15:30N 38°05' W 024°09'510.3
2018-May-21 15:01N 38°05' W 024°15'510.1
2018-May-21 14:30N 38°05' W 024°22'510.1
2018-May-21 14:00N 38°05' W 024°28'510.2
2018-May-21 13:30N 38°06' W 024°34'510.3
2018-May-21 13:00N 38°06' W 024°41'510.1
2018-May-21 12:30N 38°06' W 024°47'510.1
2018-May-21 12:00N 38°06' W 024°54'510.0
2018-May-21 11:30N 38°07' W 025°00'510.1
2018-May-21 11:00N 38°07' W 025°06'510.2
2018-May-21 10:30N 38°07' W 025°13'510.3
2018-May-21 10:00N 38°07' W 025°20'510.0
2018-May-21 09:30N 38°08' W 025°26'5 9.8
2018-May-21 09:00N 38°08' W 025°32'510.0
2018-May-21 08:30N 38°08' W 025°38'510.0
2018-May-21 08:01N 38°08' W 025°45'5 9.8
2018-May-21 07:30N 38°09' W 025°51'510.1
2018-May-21 07:00N 38°09' W 025°57'510.3
2018-May-21 06:31N 38°09' W 026°04'510.4
2018-May-21 06:00N 38°09' W 026°11'510.5
2018-May-21 05:30N 38°09' W 026°17'510.9
2018-May-21 05:00N 38°10' W 026°24'510.8
2018-May-21 04:31N 38°10' W 026°31'510.5
2018-May-21 04:00N 38°10' W 026°38'510.5
2018-May-21 03:30N 38°10' W 026°44'510.7
2018-May-21 03:00N 38°11' W 026°51'510.7
2018-May-21 02:30N 38°11' W 026°58'510.6
2018-May-21 02:00N 38°11' W 027°05'510.7
2018-May-21 01:30N 38°12' W 027°12'510.2
2018-May-21 01:01N 38°12' W 027°18'510.3
2018-May-21 00:30N 38°12' W 027°25'510.3
2018-May-21 00:00N 38°12' W 027°31'510.1
2018-May-20 23:31N 38°12' W 027°38'510.3
2018-May-20 23:00N 38°13' W 027°44'510.2
2018-May-20 22:30N 38°13' W 027°51'510.7
2018-May-20 22:00N 38°13' W 027°57'510.9
2018-May-20 21:30N 38°13' W 028°04'611.1
2018-May-20 21:00N 38°14' W 028°11'511.0
2018-May-20 20:30N 38°14' W 028°18'510.3
2018-May-20 20:00N 38°14' W 028°25'511.0
2018-May-20 19:30N 38°14' W 028°32'510.9
2018-May-20 19:00N 38°15' W 028°39'510.9
2018-May-20 18:31N 38°15' W 028°46'510.8
2018-May-20 18:00N 38°15' W 028°53'510.4
2018-May-20 17:30N 38°15' W 028°59'510.3
2018-May-20 17:01N 38°16' W 029°06'510.4
2018-May-20 16:30N 38°16' W 029°12'510.4
2018-May-20 16:00N 38°16' W 029°19'510.5
2018-May-20 15:30N 38°17' W 029°26'510.8
2018-May-20 15:00N 38°17' W 029°32'611.2
2018-May-20 14:30N 38°17' W 029°40'510.7
2018-May-20 14:00N 38°17' W 029°46'510.7
2018-May-20 13:31N 38°17' W 029°53'510.4
2018-May-20 13:00N 38°18' W 029°60'510.7
2018-May-20 12:30N 38°17' W 030°07'510.4
2018-May-20 12:00N 38°17' W 030°13'511.0
2018-May-20 11:30N 38°16' W 030°20'510.7
2018-May-20 11:00N 38°15' W 030°27'510.3
2018-May-20 10:30N 38°15' W 030°33'7011.3
2018-May-20 04:22N 38°12' W 032°02'  

Dump ship's entire track history